sensor_id;sensor_type;location;lat;lon;timestamp;P1;durP1;ratioP1;P2;durP2;ratioP2
13693;SDS011;6919;52.344;14.518;2022-08-19T00:01:57;7.80;;;7.00;;
13693;SDS011;6919;52.344;14.518;2022-08-19T00:04:27;11.27;;;7.50;;
13693;SDS011;6919;52.344;14.518;2022-08-19T00:06:59;8.77;;;7.33;;
13693;SDS011;6919;52.344;14.518;2022-08-19T00:09:28;9.83;;;7.33;;
13693;SDS011;6919;52.344;14.518;2022-08-19T00:11:57;7.63;;;6.93;;
13693;SDS011;6919;52.344;14.518;2022-08-19T00:14:28;7.10;;;6.47;;
13693;SDS011;6919;52.344;14.518;2022-08-19T00:16:58;8.47;;;6.60;;
13693;SDS011;6919;52.344;14.518;2022-08-19T00:19:27;7.90;;;6.67;;
13693;SDS011;6919;52.344;14.518;2022-08-19T00:21:56;7.63;;;6.83;;
13693;SDS011;6919;52.344;14.518;2022-08-19T00:24:24;9.77;;;7.10;;
13693;SDS011;6919;52.344;14.518;2022-08-19T00:26:55;9.77;;;6.70;;
13693;SDS011;6919;52.344;14.518;2022-08-19T00:29:44;8.83;;;6.87;;
13693;SDS011;6919;52.344;14.518;2022-08-19T00:32:18;8.57;;;6.57;;
13693;SDS011;6919;52.344;14.518;2022-08-19T00:34:47;10.20;;;6.77;;
13693;SDS011;6919;52.344;14.518;2022-08-19T00:37:15;8.27;;;7.47;;
13693;SDS011;6919;52.344;14.518;2022-08-19T00:39:43;12.27;;;6.80;;
13693;SDS011;6919;52.344;14.518;2022-08-19T00:42:14;7.63;;;6.90;;
13693;SDS011;6919;52.344;14.518;2022-08-19T00:44:42;9.07;;;7.30;;
13693;SDS011;6919;52.344;14.518;2022-08-19T00:47:12;8.63;;;7.30;;
13693;SDS011;6919;52.344;14.518;2022-08-19T00:49:41;9.13;;;6.93;;
13693;SDS011;6919;52.344;14.518;2022-08-19T00:52:18;9.00;;;7.60;;
13693;SDS011;6919;52.344;14.518;2022-08-19T00:54:53;7.63;;;6.67;;
13693;SDS011;6919;52.344;14.518;2022-08-19T00:57:23;7.90;;;6.43;;
13693;SDS011;6919;52.344;14.518;2022-08-19T00:59:58;8.97;;;7.57;;
13693;SDS011;6919;52.344;14.518;2022-08-19T01:02:29;8.33;;;7.03;;
13693;SDS011;6919;52.344;14.518;2022-08-19T01:05:00;8.23;;;7.40;;
13693;SDS011;6919;52.344;14.518;2022-08-19T01:07:34;8.10;;;6.70;;
13693;SDS011;6919;52.344;14.518;2022-08-19T01:10:05;8.77;;;7.43;;
13693;SDS011;6919;52.344;14.518;2022-08-19T01:12:37;8.07;;;7.27;;
13693;SDS011;6919;52.344;14.518;2022-08-19T01:15:09;10.07;;;6.70;;
13693;SDS011;6919;52.344;14.518;2022-08-19T01:17:41;9.70;;;6.97;;
13693;SDS011;6919;52.344;14.518;2022-08-19T01:20:11;9.43;;;7.47;;
13693;SDS011;6919;52.344;14.518;2022-08-19T01:22:46;9.77;;;7.53;;
13693;SDS011;6919;52.344;14.518;2022-08-19T01:25:19;8.10;;;7.17;;
13693;SDS011;6919;52.344;14.518;2022-08-19T01:27:54;8.57;;;6.47;;
13693;SDS011;6919;52.344;14.518;2022-08-19T01:30:35;7.93;;;6.97;;
13693;SDS011;6919;52.344;14.518;2022-08-19T01:33:03;8.47;;;6.83;;
13693;SDS011;6919;52.344;14.518;2022-08-19T01:35:32;9.50;;;6.83;;
13693;SDS011;6919;52.344;14.518;2022-08-19T01:38:05;10.67;;;7.70;;
13693;SDS011;6919;52.344;14.518;2022-08-19T01:40:38;13.03;;;7.77;;
13693;SDS011;6919;52.344;14.518;2022-08-19T01:43:08;10.47;;;7.73;;
13693;SDS011;6919;52.344;14.518;2022-08-19T01:45:36;12.87;;;8.27;;
13693;SDS011;6919;52.344;14.518;2022-08-19T01:48:06;13.30;;;8.33;;
13693;SDS011;6919;52.344;14.518;2022-08-19T01:50:36;10.27;;;8.77;;
13693;SDS011;6919;52.344;14.518;2022-08-19T01:53:07;9.80;;;8.40;;
13693;SDS011;6919;52.344;14.518;2022-08-19T01:55:39;12.90;;;8.80;;
13693;SDS011;6919;52.344;14.518;2022-08-19T01:58:11;10.57;;;9.40;;
13693;SDS011;6919;52.344;14.518;2022-08-19T02:00:45;13.43;;;8.83;;
13693;SDS011;6919;52.344;14.518;2022-08-19T02:03:14;14.70;;;9.00;;
13693;SDS011;6919;52.344;14.518;2022-08-19T02:05:43;11.50;;;9.40;;
13693;SDS011;6919;52.344;14.518;2022-08-19T02:08:13;14.67;;;10.13;;
13693;SDS011;6919;52.344;14.518;2022-08-19T02:10:42;13.57;;;10.60;;
13693;SDS011;6919;52.344;14.518;2022-08-19T02:13:12;14.07;;;9.87;;
13693;SDS011;6919;52.344;14.518;2022-08-19T02:15:46;10.97;;;9.83;;
13693;SDS011;6919;52.344;14.518;2022-08-19T02:18:14;11.70;;;9.63;;
13693;SDS011;6919;52.344;14.518;2022-08-19T02:20:43;16.60;;;11.00;;
13693;SDS011;6919;52.344;14.518;2022-08-19T02:23:14;12.00;;;10.43;;
13693;SDS011;6919;52.344;14.518;2022-08-19T02:25:45;11.63;;;10.43;;
13693;SDS011;6919;52.344;14.518;2022-08-19T02:28:15;16.30;;;11.00;;
13693;SDS011;6919;52.344;14.518;2022-08-19T02:30:44;16.13;;;10.37;;
13693;SDS011;6919;52.344;14.518;2022-08-19T02:33:15;12.87;;;10.30;;
13693;SDS011;6919;52.344;14.518;2022-08-19T02:35:44;14.17;;;10.53;;
13693;SDS011;6919;52.344;14.518;2022-08-19T02:38:14;13.97;;;11.23;;
13693;SDS011;6919;52.344;14.518;2022-08-19T02:40:52;12.03;;;10.80;;
13693;SDS011;6919;52.344;14.518;2022-08-19T02:43:23;14.30;;;10.93;;
13693;SDS011;6919;52.344;14.518;2022-08-19T02:45:53;17.40;;;11.13;;
13693;SDS011;6919;52.344;14.518;2022-08-19T02:48:22;13.17;;;11.80;;
13693;SDS011;6919;52.344;14.518;2022-08-19T02:50:52;18.00;;;11.33;;
13693;SDS011;6919;52.344;14.518;2022-08-19T02:53:24;13.20;;;11.27;;
13693;SDS011;6919;52.344;14.518;2022-08-19T02:55:55;14.10;;;12.13;;
13693;SDS011;6919;52.344;14.518;2022-08-19T02:58:23;15.40;;;12.90;;
13693;SDS011;6919;52.344;14.518;2022-08-19T03:00:53;15.17;;;12.93;;
13693;SDS011;6919;52.344;14.518;2022-08-19T03:03:24;14.33;;;12.77;;
13693;SDS011;6919;52.344;14.518;2022-08-19T03:06:02;16.80;;;13.63;;
13693;SDS011;6919;52.344;14.518;2022-08-19T03:08:36;15.03;;;13.57;;
13693;SDS011;6919;52.344;14.518;2022-08-19T03:11:05;22.10;;;14.53;;
13693;SDS011;6919;52.344;14.518;2022-08-19T03:13:39;15.10;;;13.63;;
13693;SDS011;6919;52.344;14.518;2022-08-19T03:16:09;15.27;;;13.73;;
13693;SDS011;6919;52.344;14.518;2022-08-19T03:18:38;15.57;;;13.17;;
13693;SDS011;6919;52.344;14.518;2022-08-19T03:21:07;15.63;;;13.97;;
13693;SDS011;6919;52.344;14.518;2022-08-19T03:23:39;17.03;;;14.73;;
13693;SDS011;6919;52.344;14.518;2022-08-19T03:26:07;16.23;;;14.17;;
13693;SDS011;6919;52.344;14.518;2022-08-19T03:28:42;18.13;;;14.43;;
13693;SDS011;6919;52.344;14.518;2022-08-19T03:31:23;19.50;;;13.10;;
13693;SDS011;6919;52.344;14.518;2022-08-19T03:34:11;14.37;;;12.97;;
13693;SDS011;6919;52.344;14.518;2022-08-19T03:36:43;14.43;;;12.93;;
13693;SDS011;6919;52.344;14.518;2022-08-19T03:39:14;17.43;;;13.27;;
13693;SDS011;6919;52.344;14.518;2022-08-19T03:41:44;14.47;;;13.03;;
13693;SDS011;6919;52.344;14.518;2022-08-19T03:44:35;14.40;;;12.90;;
13693;SDS011;6919;52.344;14.518;2022-08-19T03:47:04;16.13;;;14.43;;
13693;SDS011;6919;52.344;14.518;2022-08-19T03:49:32;17.13;;;14.97;;
13693;SDS011;6919;52.344;14.518;2022-08-19T03:52:02;15.67;;;14.17;;
13693;SDS011;6919;52.344;14.518;2022-08-19T03:54:35;15.87;;;14.27;;
13693;SDS011;6919;52.344;14.518;2022-08-19T03:57:04;17.67;;;14.27;;
13693;SDS011;6919;52.344;14.518;2022-08-19T03:59:35;15.40;;;13.80;;
13693;SDS011;6919;52.344;14.518;2022-08-19T04:02:07;15.77;;;14.17;;
13693;SDS011;6919;52.344;14.518;2022-08-19T04:04:38;16.83;;;14.70;;
13693;SDS011;6919;52.344;14.518;2022-08-19T04:07:10;16.33;;;14.53;;
13693;SDS011;6919;52.344;14.518;2022-08-19T04:09:43;18.30;;;14.73;;
13693;SDS011;6919;52.344;14.518;2022-08-19T04:12:11;17.20;;;13.90;;
13693;SDS011;6919;52.344;14.518;2022-08-19T04:14:41;20.63;;;15.20;;
13693;SDS011;6919;52.344;14.518;2022-08-19T04:17:09;17.80;;;15.47;;
13693;SDS011;6919;52.344;14.518;2022-08-19T04:19:39;17.07;;;15.37;;
13693;SDS011;6919;52.344;14.518;2022-08-19T04:22:09;16.87;;;15.10;;
13693;SDS011;6919;52.344;14.518;2022-08-19T04:24:38;15.70;;;14.13;;
13693;SDS011;6919;52.344;14.518;2022-08-19T04:27:07;15.77;;;13.93;;
13693;SDS011;6919;52.344;14.518;2022-08-19T04:29:35;16.63;;;13.97;;
13693;SDS011;6919;52.344;14.518;2022-08-19T04:32:05;18.60;;;14.97;;
13693;SDS011;6919;52.344;14.518;2022-08-19T04:34:35;16.73;;;14.97;;
13693;SDS011;6919;52.344;14.518;2022-08-19T04:37:24;15.23;;;13.70;;
13693;SDS011;6919;52.344;14.518;2022-08-19T04:40:01;15.30;;;13.77;;
13693;SDS011;6919;52.344;14.518;2022-08-19T04:42:52;14.20;;;12.70;;
13693;SDS011;6919;52.344;14.518;2022-08-19T04:45:20;16.10;;;14.40;;
13693;SDS011;6919;52.344;14.518;2022-08-19T04:47:49;15.87;;;13.73;;
13693;SDS011;6919;52.344;14.518;2022-08-19T04:50:42;16.23;;;14.50;;
13693;SDS011;6919;52.344;14.518;2022-08-19T04:53:10;17.37;;;13.90;;
13693;SDS011;6919;52.344;14.518;2022-08-19T04:55:39;14.47;;;13.07;;
13693;SDS011;6919;52.344;14.518;2022-08-19T04:58:10;16.83;;;14.03;;
13693;SDS011;6919;52.344;14.518;2022-08-19T05:00:39;16.10;;;13.80;;
13693;SDS011;6919;52.344;14.518;2022-08-19T05:03:07;15.33;;;12.93;;
13693;SDS011;6919;52.344;14.518;2022-08-19T05:05:38;13.53;;;12.23;;
13693;SDS011;6919;52.344;14.518;2022-08-19T05:08:10;13.70;;;12.33;;
13693;SDS011;6919;52.344;14.518;2022-08-19T05:10:40;15.57;;;13.87;;
13693;SDS011;6919;52.344;14.518;2022-08-19T05:13:08;20.03;;;13.33;;
13693;SDS011;6919;52.344;14.518;2022-08-19T05:15:38;14.57;;;13.07;;
13693;SDS011;6919;52.344;14.518;2022-08-19T05:18:06;16.33;;;13.00;;
13693;SDS011;6919;52.344;14.518;2022-08-19T05:20:52;15.73;;;12.77;;
13693;SDS011;6919;52.344;14.518;2022-08-19T05:23:37;14.10;;;12.60;;
13693;SDS011;6919;52.344;14.518;2022-08-19T05:26:06;17.17;;;12.40;;
13693;SDS011;6919;52.344;14.518;2022-08-19T05:28:38;14.43;;;13.00;;
13693;SDS011;6919;52.344;14.518;2022-08-19T05:31:06;13.97;;;12.47;;
13693;SDS011;6919;52.344;14.518;2022-08-19T05:33:34;14.30;;;12.67;;
13693;SDS011;6919;52.344;14.518;2022-08-19T05:36:03;13.27;;;12.03;;
13693;SDS011;6919;52.344;14.518;2022-08-19T05:38:33;13.70;;;12.37;;
13693;SDS011;6919;52.344;14.518;2022-08-19T05:41:05;13.17;;;11.87;;
13693;SDS011;6919;52.344;14.518;2022-08-19T05:43:36;16.23;;;11.20;;
13693;SDS011;6919;52.344;14.518;2022-08-19T05:46:06;14.13;;;11.60;;
13693;SDS011;6919;52.344;14.518;2022-08-19T05:48:35;14.80;;;12.37;;
13693;SDS011;6919;52.344;14.518;2022-08-19T05:51:04;13.37;;;12.17;;
13693;SDS011;6919;52.344;14.518;2022-08-19T05:53:34;13.33;;;11.87;;
13693;SDS011;6919;52.344;14.518;2022-08-19T05:56:03;15.07;;;11.83;;
13693;SDS011;6919;52.344;14.518;2022-08-19T05:58:33;13.93;;;12.47;;
13693;SDS011;6919;52.344;14.518;2022-08-19T06:01:01;14.77;;;12.17;;
13693;SDS011;6919;52.344;14.518;2022-08-19T06:03:33;14.40;;;12.60;;
13693;SDS011;6919;52.344;14.518;2022-08-19T06:06:03;14.33;;;12.77;;
13693;SDS011;6919;52.344;14.518;2022-08-19T06:08:33;13.47;;;12.07;;
13693;SDS011;6919;52.344;14.518;2022-08-19T06:11:18;13.57;;;12.27;;
13693;SDS011;6919;52.344;14.518;2022-08-19T06:13:49;13.73;;;12.10;;
13693;SDS011;6919;52.344;14.518;2022-08-19T06:16:25;13.67;;;11.83;;
13693;SDS011;6919;52.344;14.518;2022-08-19T06:18:56;13.80;;;12.23;;
13693;SDS011;6919;52.344;14.518;2022-08-19T06:21:27;13.10;;;11.57;;
13693;SDS011;6919;52.344;14.518;2022-08-19T06:23:57;13.73;;;11.93;;
13693;SDS011;6919;52.344;14.518;2022-08-19T06:26:26;14.90;;;11.97;;
13693;SDS011;6919;52.344;14.518;2022-08-19T06:28:55;14.80;;;11.17;;
13693;SDS011;6919;52.344;14.518;2022-08-19T06:31:24;15.97;;;12.27;;
13693;SDS011;6919;52.344;14.518;2022-08-19T06:33:55;12.57;;;11.33;;
13693;SDS011;6919;52.344;14.518;2022-08-19T06:36:25;13.70;;;12.30;;
13693;SDS011;6919;52.344;14.518;2022-08-19T06:39:00;23.53;;;11.83;;
13693;SDS011;6919;52.344;14.518;2022-08-19T06:41:33;13.20;;;11.43;;
13693;SDS011;6919;52.344;14.518;2022-08-19T06:44:12;13.80;;;12.37;;
13693;SDS011;6919;52.344;14.518;2022-08-19T06:46:42;13.30;;;11.33;;
13693;SDS011;6919;52.344;14.518;2022-08-19T06:49:21;17.87;;;12.00;;
13693;SDS011;6919;52.344;14.518;2022-08-19T06:51:51;16.07;;;12.70;;
13693;SDS011;6919;52.344;14.518;2022-08-19T06:54:19;12.17;;;11.10;;
13693;SDS011;6919;52.344;14.518;2022-08-19T06:56:48;14.47;;;11.87;;
13693;SDS011;6919;52.344;14.518;2022-08-19T06:59:17;12.97;;;11.67;;
13693;SDS011;6919;52.344;14.518;2022-08-19T07:01:50;12.50;;;11.10;;
13693;SDS011;6919;52.344;14.518;2022-08-19T07:04:23;15.67;;;12.07;;
13693;SDS011;6919;52.344;14.518;2022-08-19T07:06:56;12.40;;;10.87;;
13693;SDS011;6919;52.344;14.518;2022-08-19T07:09:45;15.17;;;12.27;;
13693;SDS011;6919;52.344;14.518;2022-08-19T07:12:26;12.67;;;11.37;;
13693;SDS011;6919;52.344;14.518;2022-08-19T07:14:57;18.53;;;13.03;;
13693;SDS011;6919;52.344;14.518;2022-08-19T07:17:26;13.73;;;11.50;;
13693;SDS011;6919;52.344;14.518;2022-08-19T07:19:58;14.80;;;13.17;;
13693;SDS011;6919;52.344;14.518;2022-08-19T07:22:32;12.60;;;11.23;;
13693;SDS011;6919;52.344;14.518;2022-08-19T07:25:01;13.90;;;12.17;;
13693;SDS011;6919;52.344;14.518;2022-08-19T07:27:31;13.77;;;11.43;;
13693;SDS011;6919;52.344;14.518;2022-08-19T07:30:00;14.10;;;12.67;;
13693;SDS011;6919;52.344;14.518;2022-08-19T07:32:28;14.03;;;11.83;;
13693;SDS011;6919;52.344;14.518;2022-08-19T07:34:59;13.50;;;12.20;;
13693;SDS011;6919;52.344;14.518;2022-08-19T07:37:29;14.87;;;12.27;;
13693;SDS011;6919;52.344;14.518;2022-08-19T07:39:59;16.70;;;11.93;;
13693;SDS011;6919;52.344;14.518;2022-08-19T07:42:27;14.23;;;12.80;;
13693;SDS011;6919;52.344;14.518;2022-08-19T07:44:56;13.50;;;12.17;;
13693;SDS011;6919;52.344;14.518;2022-08-19T07:47:25;13.43;;;11.07;;
13693;SDS011;6919;52.344;14.518;2022-08-19T07:50:16;15.33;;;11.40;;
13693;SDS011;6919;52.344;14.518;2022-08-19T07:52:46;16.43;;;12.93;;
13693;SDS011;6919;52.344;14.518;2022-08-19T07:55:17;16.27;;;11.87;;
13693;SDS011;6919;52.344;14.518;2022-08-19T07:58:09;14.00;;;12.60;;
13693;SDS011;6919;52.344;14.518;2022-08-19T08:00:41;13.77;;;12.40;;
13693;SDS011;6919;52.344;14.518;2022-08-19T08:03:11;15.03;;;12.00;;
13693;SDS011;6919;52.344;14.518;2022-08-19T08:05:42;13.50;;;11.83;;
13693;SDS011;6919;52.344;14.518;2022-08-19T08:08:28;13.87;;;11.40;;
13693;SDS011;6919;52.344;14.518;2022-08-19T08:11:15;14.50;;;12.53;;
13693;SDS011;6919;52.344;14.518;2022-08-19T08:13:49;22.30;;;12.97;;
13693;SDS011;6919;52.344;14.518;2022-08-19T08:16:26;16.23;;;12.67;;
13693;SDS011;6919;52.344;14.518;2022-08-19T08:18:56;16.27;;;12.63;;
13693;SDS011;6919;52.344;14.518;2022-08-19T08:21:27;16.10;;;12.80;;
13693;SDS011;6919;52.344;14.518;2022-08-19T08:23:55;17.60;;;12.53;;
13693;SDS011;6919;52.344;14.518;2022-08-19T08:26:29;17.03;;;12.33;;
13693;SDS011;6919;52.344;14.518;2022-08-19T08:28:59;15.40;;;12.40;;
13693;SDS011;6919;52.344;14.518;2022-08-19T08:31:37;17.33;;;13.93;;
13693;SDS011;6919;52.344;14.518;2022-08-19T08:34:06;15.83;;;13.87;;
13693;SDS011;6919;52.344;14.518;2022-08-19T08:36:37;14.50;;;12.13;;
13693;SDS011;6919;52.344;14.518;2022-08-19T08:39:07;15.57;;;13.10;;
13693;SDS011;6919;52.344;14.518;2022-08-19T08:41:39;14.27;;;12.83;;
13693;SDS011;6919;52.344;14.518;2022-08-19T08:44:15;14.50;;;12.37;;
13693;SDS011;6919;52.344;14.518;2022-08-19T08:46:51;16.63;;;12.17;;
13693;SDS011;6919;52.344;14.518;2022-08-19T08:49:27;13.63;;;12.33;;
13693;SDS011;6919;52.344;14.518;2022-08-19T08:52:05;15.90;;;12.77;;
13693;SDS011;6919;52.344;14.518;2022-08-19T08:54:42;16.47;;;12.30;;
13693;SDS011;6919;52.344;14.518;2022-08-19T08:57:23;15.33;;;12.23;;
13693;SDS011;6919;52.344;14.518;2022-08-19T09:00:07;14.77;;;13.23;;
13693;SDS011;6919;52.344;14.518;2022-08-19T09:02:42;14.10;;;12.70;;
13693;SDS011;6919;52.344;14.518;2022-08-19T09:05:16;16.13;;;12.17;;
13693;SDS011;6919;52.344;14.518;2022-08-19T09:07:52;16.07;;;13.40;;
13693;SDS011;6919;52.344;14.518;2022-08-19T09:10:29;15.17;;;13.60;;
13693;SDS011;6919;52.344;14.518;2022-08-19T09:13:21;17.40;;;14.27;;
13693;SDS011;6919;52.344;14.518;2022-08-19T09:16:04;19.50;;;13.70;;
13693;SDS011;6919;52.344;14.518;2022-08-19T09:18:42;18.30;;;14.90;;
13693;SDS011;6919;52.344;14.518;2022-08-19T09:21:15;15.27;;;13.77;;
13693;SDS011;6919;52.344;14.518;2022-08-19T09:23:48;17.20;;;14.17;;
13693;SDS011;6919;52.344;14.518;2022-08-19T09:26:18;15.23;;;13.70;;
13693;SDS011;6919;52.344;14.518;2022-08-19T09:29:09;16.83;;;15.23;;
13693;SDS011;6919;52.344;14.518;2022-08-19T09:31:37;15.93;;;13.70;;
13693;SDS011;6919;52.344;14.518;2022-08-19T09:34:06;22.70;;;13.70;;
13693;SDS011;6919;52.344;14.518;2022-08-19T09:36:46;14.70;;;13.17;;
13693;SDS011;6919;52.344;14.518;2022-08-19T09:39:21;14.57;;;12.93;;
13693;SDS011;6919;52.344;14.518;2022-08-19T09:42:01;18.93;;;13.80;;
13693;SDS011;6919;52.344;14.518;2022-08-19T09:44:41;16.60;;;13.87;;
13693;SDS011;6919;52.344;14.518;2022-08-19T09:47:11;19.47;;;15.53;;
13693;SDS011;6919;52.344;14.518;2022-08-19T09:49:45;16.50;;;14.80;;
13693;SDS011;6919;52.344;14.518;2022-08-19T09:52:15;15.77;;;14.30;;
13693;SDS011;6919;52.344;14.518;2022-08-19T09:54:45;15.87;;;14.37;;
13693;SDS011;6919;52.344;14.518;2022-08-19T09:57:17;19.30;;;15.00;;
13693;SDS011;6919;52.344;14.518;2022-08-19T09:59:46;16.03;;;14.33;;
13693;SDS011;6919;52.344;14.518;2022-08-19T10:02:14;17.53;;;15.50;;
13693;SDS011;6919;52.344;14.518;2022-08-19T10:04:47;17.20;;;14.37;;
13693;SDS011;6919;52.344;14.518;2022-08-19T10:07:33;16.15;;;14.40;;
13693;SDS011;6919;52.344;14.518;2022-08-19T10:10:05;16.92;;;15.23;;
13693;SDS011;6919;52.344;14.518;2022-08-19T10:12:35;16.45;;;13.75;;
13693;SDS011;6919;52.344;14.518;2022-08-19T10:15:04;16.05;;;14.43;;
13693;SDS011;6919;52.344;14.518;2022-08-19T10:17:34;22.33;;;14.15;;
13693;SDS011;6919;52.344;14.518;2022-08-19T10:20:04;19.63;;;13.63;;
13693;SDS011;6919;52.344;14.518;2022-08-19T10:22:33;16.83;;;13.82;;
13693;SDS011;6919;52.344;14.518;2022-08-19T10:25:10;19.00;;;13.43;;
13693;SDS011;6919;52.344;14.518;2022-08-19T10:27:42;15.18;;;13.10;;
13693;SDS011;6919;52.344;14.518;2022-08-19T10:30:17;15.73;;;14.23;;
13693;SDS011;6919;52.344;14.518;2022-08-19T10:32:50;16.03;;;14.47;;
13693;SDS011;6919;52.344;14.518;2022-08-19T10:35:20;15.50;;;13.90;;
13693;SDS011;6919;52.344;14.518;2022-08-19T10:37:52;16.07;;;14.43;;
13693;SDS011;6919;52.344;14.518;2022-08-19T10:40:29;16.40;;;14.53;;
13693;SDS011;6919;52.344;14.518;2022-08-19T10:42:58;21.97;;;15.40;;
13693;SDS011;6919;52.344;14.518;2022-08-19T10:45:27;16.77;;;14.87;;
13693;SDS011;6919;52.344;14.518;2022-08-19T10:47:56;17.53;;;15.00;;
13693;SDS011;6919;52.344;14.518;2022-08-19T10:50:25;16.57;;;14.77;;
13693;SDS011;6919;52.344;14.518;2022-08-19T10:53:11;16.13;;;13.77;;
13693;SDS011;6919;52.344;14.518;2022-08-19T10:55:41;18.00;;;14.47;;
13693;SDS011;6919;52.344;14.518;2022-08-19T10:58:29;15.77;;;14.17;;
13693;SDS011;6919;52.344;14.518;2022-08-19T11:00:59;15.83;;;14.17;;
13693;SDS011;6919;52.344;14.518;2022-08-19T11:03:28;17.23;;;15.13;;
13693;SDS011;6919;52.344;14.518;2022-08-19T11:05:59;15.90;;;14.30;;
13693;SDS011;6919;52.344;14.518;2022-08-19T11:08:30;15.73;;;12.60;;
13693;SDS011;6919;52.344;14.518;2022-08-19T11:11:03;15.67;;;14.17;;
13693;SDS011;6919;52.344;14.518;2022-08-19T11:13:35;15.80;;;14.17;;
13693;SDS011;6919;52.344;14.518;2022-08-19T11:16:08;17.90;;;14.83;;
13693;SDS011;6919;52.344;14.518;2022-08-19T11:18:42;16.33;;;13.82;;
13693;SDS011;6919;52.344;14.518;2022-08-19T11:21:18;14.45;;;13.07;;
13693;SDS011;6919;52.344;14.518;2022-08-19T11:23:50;15.98;;;14.40;;
13693;SDS011;6919;52.344;14.518;2022-08-19T11:26:24;17.48;;;15.60;;
13693;SDS011;6919;52.344;14.518;2022-08-19T11:28:55;18.13;;;15.20;;
13693;SDS011;6919;52.344;14.518;2022-08-19T11:31:26;22.35;;;16.88;;
13693;SDS011;6919;52.344;14.518;2022-08-19T11:33:59;20.13;;;15.30;;
13693;SDS011;6919;52.344;14.518;2022-08-19T11:36:32;20.85;;;18.77;;
13693;SDS011;6919;52.344;14.518;2022-08-19T11:39:09;20.02;;;18.10;;
13693;SDS011;6919;52.344;14.518;2022-08-19T11:41:46;22.67;;;17.73;;
13693;SDS011;6919;52.344;14.518;2022-08-19T11:44:17;19.15;;;17.10;;
13693;SDS011;6919;52.344;14.518;2022-08-19T11:46:53;20.23;;;17.63;;
13693;SDS011;6919;52.344;14.518;2022-08-19T11:49:34;20.70;;;17.80;;
13693;SDS011;6919;52.344;14.518;2022-08-19T11:52:04;23.25;;;18.23;;
13693;SDS011;6919;52.344;14.518;2022-08-19T11:54:34;20.75;;;18.55;;
13693;SDS011;6919;52.344;14.518;2022-08-19T11:57:08;20.20;;;18.02;;
13693;SDS011;6919;52.344;14.518;2022-08-19T11:59:49;18.73;;;16.95;;
13693;SDS011;6919;52.344;14.518;2022-08-19T12:02:21;19.80;;;17.80;;
13693;SDS011;6919;52.344;14.518;2022-08-19T12:04:50;20.05;;;18.20;;
13693;SDS011;6919;52.344;14.518;2022-08-19T12:07:19;19.48;;;16.98;;
13693;SDS011;6919;52.344;14.518;2022-08-19T12:09:51;22.60;;;17.77;;
13693;SDS011;6919;52.344;14.518;2022-08-19T12:12:26;20.30;;;17.40;;
13693;SDS011;6919;52.344;14.518;2022-08-19T12:14:59;21.27;;;18.90;;
13693;SDS011;6919;52.344;14.518;2022-08-19T12:17:30;18.17;;;16.35;;
13693;SDS011;6919;52.344;14.518;2022-08-19T12:20:02;17.02;;;15.20;;
13693;SDS011;6919;52.344;14.518;2022-08-19T12:22:33;19.40;;;17.00;;
13693;SDS011;6919;52.344;14.518;2022-08-19T12:25:06;18.40;;;16.65;;
13693;SDS011;6919;52.344;14.518;2022-08-19T12:27:41;16.77;;;15.25;;
13693;SDS011;6919;52.344;14.518;2022-08-19T12:30:23;20.48;;;18.02;;
13693;SDS011;6919;52.344;14.518;2022-08-19T12:32:53;17.90;;;16.10;;
13693;SDS011;6919;52.344;14.518;2022-08-19T12:35:24;16.95;;;15.27;;
13693;SDS011;6919;52.344;14.518;2022-08-19T12:38:00;19.90;;;16.00;;
13693;SDS011;6919;52.344;14.518;2022-08-19T12:40:32;17.33;;;15.60;;
13693;SDS011;6919;52.344;14.518;2022-08-19T12:43:02;17.23;;;15.43;;
13693;SDS011;6919;52.344;14.518;2022-08-19T12:45:33;18.65;;;16.80;;
13693;SDS011;6919;52.344;14.518;2022-08-19T12:48:07;17.88;;;16.13;;
13693;SDS011;6919;52.344;14.518;2022-08-19T12:50:57;19.55;;;16.08;;
13693;SDS011;6919;52.344;14.518;2022-08-19T12:53:27;22.17;;;18.17;;
13693;SDS011;6919;52.344;14.518;2022-08-19T12:55:59;19.93;;;17.93;;
13693;SDS011;6919;52.344;14.518;2022-08-19T12:58:35;20.77;;;17.70;;
13693;SDS011;6919;52.344;14.518;2022-08-19T13:01:08;19.07;;;17.10;;
13693;SDS011;6919;52.344;14.518;2022-08-19T13:03:44;19.17;;;17.17;;
13693;SDS011;6919;52.344;14.518;2022-08-19T13:06:16;18.20;;;16.00;;
13693;SDS011;6919;52.344;14.518;2022-08-19T13:08:46;18.13;;;16.40;;
13693;SDS011;6919;52.344;14.518;2022-08-19T13:11:17;18.83;;;17.03;;
13693;SDS011;6919;52.344;14.518;2022-08-19T13:14:03;19.00;;;17.20;;
13693;SDS011;6919;52.344;14.518;2022-08-19T13:16:35;20.83;;;17.27;;
13693;SDS011;6919;52.344;14.518;2022-08-19T13:19:05;18.53;;;16.83;;
13693;SDS011;6919;52.344;14.518;2022-08-19T13:21:37;18.80;;;16.50;;
13693;SDS011;6919;52.344;14.518;2022-08-19T13:24:07;17.57;;;15.63;;
13693;SDS011;6919;52.344;14.518;2022-08-19T13:26:36;18.43;;;16.67;;
13693;SDS011;6919;52.344;14.518;2022-08-19T13:29:07;18.73;;;16.77;;
13693;SDS011;6919;52.344;14.518;2022-08-19T13:31:52;18.53;;;16.90;;
13693;SDS011;6919;52.344;14.518;2022-08-19T13:34:43;20.33;;;17.97;;
13693;SDS011;6919;52.344;14.518;2022-08-19T13:37:13;19.13;;;17.10;;
13693;SDS011;6919;52.344;14.518;2022-08-19T13:39:42;19.77;;;17.80;;
13693;SDS011;6919;52.344;14.518;2022-08-19T13:42:11;18.53;;;16.53;;
13693;SDS011;6919;52.344;14.518;2022-08-19T13:44:41;18.90;;;17.10;;
13693;SDS011;6919;52.344;14.518;2022-08-19T13:47:14;19.40;;;17.50;;
13693;SDS011;6919;52.344;14.518;2022-08-19T13:49:42;19.37;;;17.47;;
13693;SDS011;6919;52.344;14.518;2022-08-19T13:52:10;18.53;;;16.60;;
13693;SDS011;6919;52.344;14.518;2022-08-19T13:54:39;19.60;;;16.17;;
13693;SDS011;6919;52.344;14.518;2022-08-19T13:57:07;20.03;;;16.07;;
13693;SDS011;6919;52.344;14.518;2022-08-19T13:59:35;17.13;;;15.23;;
13693;SDS011;6919;52.344;14.518;2022-08-19T14:02:05;18.27;;;15.23;;
13693;SDS011;6919;52.344;14.518;2022-08-19T14:04:33;17.00;;;15.30;;
13693;SDS011;6919;52.344;14.518;2022-08-19T14:07:03;16.83;;;15.13;;
13693;SDS011;6919;52.344;14.518;2022-08-19T14:09:31;20.30;;;15.93;;
13693;SDS011;6919;52.344;14.518;2022-08-19T14:11:59;17.10;;;15.30;;
13693;SDS011;6919;52.344;14.518;2022-08-19T14:14:27;18.47;;;14.77;;
13693;SDS011;6919;52.344;14.518;2022-08-19T14:16:56;16.57;;;14.83;;
13693;SDS011;6919;52.344;14.518;2022-08-19T14:19:25;16.53;;;14.23;;
13693;SDS011;6919;52.344;14.518;2022-08-19T14:21:55;15.47;;;13.97;;
13693;SDS011;6919;52.344;14.518;2022-08-19T14:24:24;19.50;;;15.03;;
13693;SDS011;6919;52.344;14.518;2022-08-19T14:26:52;17.27;;;14.63;;
13693;SDS011;6919;52.344;14.518;2022-08-19T14:29:20;16.33;;;13.90;;
13693;SDS011;6919;52.344;14.518;2022-08-19T14:31:49;14.80;;;13.60;;
13693;SDS011;6919;52.344;14.518;2022-08-19T14:34:17;14.30;;;12.90;;
13693;SDS011;6919;52.344;14.518;2022-08-19T14:36:47;14.47;;;13.07;;
13693;SDS011;6919;52.344;14.518;2022-08-19T14:39:15;15.97;;;14.37;;
13693;SDS011;6919;52.344;14.518;2022-08-19T14:41:43;14.57;;;13.17;;
13693;SDS011;6919;52.344;14.518;2022-08-19T14:44:12;15.27;;;13.70;;
13693;SDS011;6919;52.344;14.518;2022-08-19T14:46:40;14.17;;;12.83;;
13693;SDS011;6919;52.344;14.518;2022-08-19T14:49:14;14.60;;;13.10;;
13693;SDS011;6919;52.344;14.518;2022-08-19T14:51:45;15.70;;;13.20;;
13693;SDS011;6919;52.344;14.518;2022-08-19T14:54:14;18.03;;;12.90;;
13693;SDS011;6919;52.344;14.518;2022-08-19T14:56:43;14.30;;;11.57;;